sensor_id;sensor_type;location;lat;lon;timestamp;temperature;humidity
71627;DHT22;59475;52.464;13.590;2024-01-11T00:01:58;-9.38;92.64
71627;DHT22;59475;52.464;13.590;2024-01-11T00:04:24;-9.38;92.82
71627;DHT22;59475;52.464;13.590;2024-01-11T00:06:50;-9.38;92.88
71627;DHT22;59475;52.464;13.590;2024-01-11T00:09:15;-9.35;92.69
71627;DHT22;59475;52.464;13.590;2024-01-11T00:11:41;-9.40;92.68
71627;DHT22;59475;52.464;13.590;2024-01-11T00:14:06;-9.46;92.82
71627;DHT22;59475;52.464;13.590;2024-01-11T00:16:32;-9.48;92.88
71627;DHT22;59475;52.464;13.590;2024-01-11T00:18:57;-9.50;93.16
71627;DHT22;59475;52.464;13.590;2024-01-11T00:21:23;-9.50;93.17
71627;DHT22;59475;52.464;13.590;2024-01-11T00:23:50;-9.48;93.20
71627;DHT22;59475;52.464;13.590;2024-01-11T00:26:16;-9.40;93.03
71627;DHT22;59475;52.464;13.590;2024-01-11T00:28:41;-9.38;92.87
71627;DHT22;59475;52.464;13.590;2024-01-11T00:31:06;-9.36;93.00
71627;DHT22;59475;52.464;13.590;2024-01-11T00:33:32;-9.39;93.12
71627;DHT22;59475;52.464;13.590;2024-01-11T00:35:58;-9.34;93.49
71627;DHT22;59475;52.464;13.590;2024-01-11T00:38:24;-9.32;93.58
71627;DHT22;59475;52.464;13.590;2024-01-11T00:40:49;-9.31;93.42
71627;DHT22;59475;52.464;13.590;2024-01-11T00:43:14;-9.32;93.48
71627;DHT22;59475;52.464;13.590;2024-01-11T00:45:40;-9.28;93.95
71627;DHT22;59475;52.464;13.590;2024-01-11T00:48:05;-9.24;93.90
71627;DHT22;59475;52.464;13.590;2024-01-11T00:50:31;-9.22;93.97
71627;DHT22;59475;52.464;13.590;2024-01-11T00:52:57;-9.22;94.42
71627;DHT22;59475;52.464;13.590;2024-01-11T00:55:22;-9.18;94.51
71627;DHT22;59475;52.464;13.590;2024-01-11T00:57:47;-9.12;95.24
71627;DHT22;59475;52.464;13.590;2024-01-11T01:00:13;-9.07;95.37
71627;DHT22;59475;52.464;13.590;2024-01-11T01:02:41;-9.01;95.32
71627;DHT22;59475;52.464;13.590;2024-01-11T01:05:07;-9.00;95.28
71627;DHT22;59475;52.464;13.590;2024-01-11T01:07:33;-8.97;95.19
71627;DHT22;59475;52.464;13.590;2024-01-11T01:09:58;-9.00;95.19
71627;DHT22;59475;52.464;13.590;2024-01-11T01:12:24;-8.97;95.51
71627;DHT22;59475;52.464;13.590;2024-01-11T01:14:52;-8.91;96.90
71627;DHT22;59475;52.464;13.590;2024-01-11T01:17:17;-8.84;97.06
71627;DHT22;59475;52.464;13.590;2024-01-11T01:19:44;-8.80;97.00
71627;DHT22;59475;52.464;13.590;2024-01-11T01:22:09;-8.77;96.84
71627;DHT22;59475;52.464;13.590;2024-01-11T01:24:35;-8.77;96.54
71627;DHT22;59475;52.464;13.590;2024-01-11T01:27:01;-8.79;96.40
71627;DHT22;59475;52.464;13.590;2024-01-11T01:29:27;-8.77;95.99
71627;DHT22;59475;52.464;13.590;2024-01-11T01:31:52;-8.82;95.82
71627;DHT22;59475;52.464;13.590;2024-01-11T01:34:18;-8.86;95.76
71627;DHT22;59475;52.464;13.590;2024-01-11T01:36:44;-8.89;95.80
71627;DHT22;59475;52.464;13.590;2024-01-11T01:39:09;-8.93;95.35
71627;DHT22;59475;52.464;13.590;2024-01-11T01:41:34;-8.97;95.73
71627;DHT22;59475;52.464;13.590;2024-01-11T01:44:00;-8.97;95.52
71627;DHT22;59475;52.464;13.590;2024-01-11T01:46:25;-8.96;95.26
71627;DHT22;59475;52.464;13.590;2024-01-11T01:48:53;-8.93;95.28
71627;DHT22;59475;52.464;13.590;2024-01-11T01:51:19;-8.99;95.17
71627;DHT22;59475;52.464;13.590;2024-01-11T01:53:44;-8.94;95.21
71627;DHT22;59475;52.464;13.590;2024-01-11T01:56:10;-9.01;94.96
71627;DHT22;59475;52.464;13.590;2024-01-11T01:58:37;-9.03;94.80
71627;DHT22;59475;52.464;13.590;2024-01-11T02:01:02;-9.05;94.78
71627;DHT22;59475;52.464;13.590;2024-01-11T02:03:28;-9.04;94.78
71627;DHT22;59475;52.464;13.590;2024-01-11T02:05:54;-9.07;94.56
71627;DHT22;59475;52.464;13.590;2024-01-11T02:08:22;-9.07;95.14
71627;DHT22;59475;52.464;13.590;2024-01-11T02:10:48;-9.04;95.48
71627;DHT22;59475;52.464;13.590;2024-01-11T02:13:13;-9.03;95.75
71627;DHT22;59475;52.464;13.590;2024-01-11T02:15:39;-8.94;96.43
71627;DHT22;59475;52.464;13.590;2024-01-11T02:18:05;-8.82;97.03
71627;DHT22;59475;52.464;13.590;2024-01-11T02:20:31;-8.70;97.49
71627;DHT22;59475;52.464;13.590;2024-01-11T02:23:01;-8.60;97.76
71627;DHT22;59475;52.464;13.590;2024-01-11T02:25:28;-8.49;97.99
71627;DHT22;59475;52.464;13.590;2024-01-11T02:27:54;-8.35;98.62
71627;DHT22;59475;52.464;13.590;2024-01-11T02:30:19;-8.25;98.28
71627;DHT22;59475;52.464;13.590;2024-01-11T02:32:49;-8.10;98.39
71627;DHT22;59475;52.464;13.590;2024-01-11T02:35:18;-7.86;99.01
71627;DHT22;59475;52.464;13.590;2024-01-11T02:37:44;-7.73;98.93
71627;DHT22;59475;52.464;13.590;2024-01-11T02:40:12;-7.69;98.83
71627;DHT22;59475;52.464;13.590;2024-01-11T02:42:38;-7.64;98.68
71627;DHT22;59475;52.464;13.590;2024-01-11T02:45:03;-7.55;98.87
71627;DHT22;59475;52.464;13.590;2024-01-11T02:47:29;-7.51;98.85
71627;DHT22;59475;52.464;13.590;2024-01-11T02:49:55;-7.48;98.65
71627;DHT22;59475;52.464;13.590;2024-01-11T02:52:22;-7.41;98.39
71627;DHT22;59475;52.464;13.590;2024-01-11T02:54:48;-7.36;98.32
71627;DHT22;59475;52.464;13.590;2024-01-11T02:57:13;-7.34;98.25
71627;DHT22;59475;52.464;13.590;2024-01-11T02:59:39;-7.30;98.56
71627;DHT22;59475;52.464;13.590;2024-01-11T03:02:05;-7.21;98.63
71627;DHT22;59475;52.464;13.590;2024-01-11T03:04:30;-7.15;98.61
71627;DHT22;59475;52.464;13.590;2024-01-11T03:06:55;-7.05;98.73
71627;DHT22;59475;52.464;13.590;2024-01-11T03:09:21;-7.03;98.76
71627;DHT22;59475;52.464;13.590;2024-01-11T03:11:46;-6.96;98.87
71627;DHT22;59475;52.464;13.590;2024-01-11T03:14:12;-6.94;98.71
71627;DHT22;59475;52.464;13.590;2024-01-11T03:16:37;-6.92;98.74
71627;DHT22;59475;52.464;13.590;2024-01-11T03:19:05;-6.83;98.71
71627;DHT22;59475;52.464;13.590;2024-01-11T03:21:30;-6.80;98.52
71627;DHT22;59475;52.464;13.590;2024-01-11T03:23:55;-6.77;98.58
71627;DHT22;59475;52.464;13.590;2024-01-11T03:26:21;-6.71;98.52
71627;DHT22;59475;52.464;13.590;2024-01-11T03:28:46;-6.69;98.51
71627;DHT22;59475;52.464;13.590;2024-01-11T03:31:12;-6.59;98.48
71627;DHT22;59475;52.464;13.590;2024-01-11T03:33:37;-6.63;98.53
71627;DHT22;59475;52.464;13.590;2024-01-11T03:36:10;-6.68;98.52
71627;DHT22;59475;52.464;13.590;2024-01-11T03:38:35;-6.65;98.62
71627;DHT22;59475;52.464;13.590;2024-01-11T03:41:01;-6.69;98.43
71627;DHT22;59475;52.464;13.590;2024-01-11T03:43:27;-6.72;98.64
71627;DHT22;59475;52.464;13.590;2024-01-11T03:45:52;-6.75;98.30
71627;DHT22;59475;52.464;13.590;2024-01-11T03:48:18;-6.75;98.20
71627;DHT22;59475;52.464;13.590;2024-01-11T03:50:44;-6.77;98.16
71627;DHT22;59475;52.464;13.590;2024-01-11T03:53:10;-6.79;98.03
71627;DHT22;59475;52.464;13.590;2024-01-11T03:55:35;-6.77;98.29
71627;DHT22;59475;52.464;13.590;2024-01-11T03:58:00;-6.79;98.20
71627;DHT22;59475;52.464;13.590;2024-01-11T04:00:26;-6.80;97.93
71627;DHT22;59475;52.464;13.590;2024-01-11T04:02:51;-6.77;98.09
71627;DHT22;59475;52.464;13.590;2024-01-11T04:05:17;-6.76;98.07
71627;DHT22;59475;52.464;13.590;2024-01-11T04:07:42;-6.76;98.09
71627;DHT22;59475;52.464;13.590;2024-01-11T04:10:08;-6.73;98.13
71627;DHT22;59475;52.464;13.590;2024-01-11T04:12:35;-6.66;98.12
71627;DHT22;59475;52.464;13.590;2024-01-11T04:15:01;-6.62;98.06
71627;DHT22;59475;52.464;13.590;2024-01-11T04:17:27;-6.56;97.93
71627;DHT22;59475;52.464;13.590;2024-01-11T04:19:52;-6.50;97.91
71627;DHT22;59475;52.464;13.590;2024-01-11T04:22:18;-6.42;97.79
71627;DHT22;59475;52.464;13.590;2024-01-11T04:24:43;-6.41;97.63
71627;DHT22;59475;52.464;13.590;2024-01-11T04:27:08;-6.34;97.51
71627;DHT22;59475;52.464;13.590;2024-01-11T04:29:34;-6.32;97.43
71627;DHT22;59475;52.464;13.590;2024-01-11T04:31:59;-6.28;97.65
71627;DHT22;59475;52.464;13.590;2024-01-11T04:34:25;-6.28;97.68
71627;DHT22;59475;52.464;13.590;2024-01-11T04:36:50;-6.24;97.71
71627;DHT22;59475;52.464;13.590;2024-01-11T04:39:16;-6.18;97.95
71627;DHT22;59475;52.464;13.590;2024-01-11T04:41:41;-6.15;98.19
71627;DHT22;59475;52.464;13.590;2024-01-11T04:44:06;-6.14;98.58
71627;DHT22;59475;52.464;13.590;2024-01-11T04:46:31;-6.10;98.75
71627;DHT22;59475;52.464;13.590;2024-01-11T04:48:57;-6.03;98.57
71627;DHT22;59475;52.464;13.590;2024-01-11T04:51:23;-5.98;98.78
71627;DHT22;59475;52.464;13.590;2024-01-11T04:53:48;-5.94;98.63
71627;DHT22;59475;52.464;13.590;2024-01-11T04:56:15;-5.89;98.72
71627;DHT22;59475;52.464;13.590;2024-01-11T04:58:42;-5.85;98.74
71627;DHT22;59475;52.464;13.590;2024-01-11T05:01:17;-5.80;98.82
71627;DHT22;59475;52.464;13.590;2024-01-11T05:03:44;-5.79;98.81
71627;DHT22;59475;52.464;13.590;2024-01-11T05:06:15;-5.78;99.02
71627;DHT22;59475;52.464;13.590;2024-01-11T05:08:41;-5.79;99.10
71627;DHT22;59475;52.464;13.590;2024-01-11T05:11:07;-5.69;99.38
71627;DHT22;59475;52.464;13.590;2024-01-11T05:13:32;-5.65;99.50
71627;DHT22;59475;52.464;13.590;2024-01-11T05:15:57;-5.65;99.84
71627;DHT22;59475;52.464;13.590;2024-01-11T05:18:23;-5.62;99.87
71627;DHT22;59475;52.464;13.590;2024-01-11T05:20:48;-5.63;99.99
71627;DHT22;59475;52.464;13.590;2024-01-11T05:23:13;-5.52;99.99
71627;DHT22;59475;52.464;13.590;2024-01-11T05:25:39;-5.56;99.99
71627;DHT22;59475;52.464;13.590;2024-01-11T05:28:04;-5.49;99.99
71627;DHT22;59475;52.464;13.590;2024-01-11T05:30:30;-5.47;99.99
71627;DHT22;59475;52.464;13.590;2024-01-11T05:32:56;-5.42;99.99
71627;DHT22;59475;52.464;13.590;2024-01-11T05:35:22;-5.41;99.99
71627;DHT22;59475;52.464;13.590;2024-01-11T05:37:49;-5.31;99.96
71627;DHT22;59475;52.464;13.590;2024-01-11T05:40:15;-5.32;99.60
71627;DHT22;59475;52.464;13.590;2024-01-11T05:42:40;-5.28;99.48
71627;DHT22;59475;52.464;13.590;2024-01-11T05:45:06;-5.25;99.31
71627;DHT22;59475;52.464;13.590;2024-01-11T05:47:31;-5.27;99.36
71627;DHT22;59475;52.464;13.590;2024-01-11T05:49:57;-5.22;99.50
71627;DHT22;59475;52.464;13.590;2024-01-11T05:52:22;-5.20;99.46
71627;DHT22;59475;52.464;13.590;2024-01-11T05:54:48;-5.18;99.45
71627;DHT22;59475;52.464;13.590;2024-01-11T05:57:13;-5.11;99.40
71627;DHT22;59475;52.464;13.590;2024-01-11T05:59:43;-5.13;99.42
71627;DHT22;59475;52.464;13.590;2024-01-11T06:02:09;-5.11;99.57
71627;DHT22;59475;52.464;13.590;2024-01-11T06:04:34;-5.04;99.48
71627;DHT22;59475;52.464;13.590;2024-01-11T06:06:59;-5.03;99.33
71627;DHT22;59475;52.464;13.590;2024-01-11T06:09:25;-4.99;99.46
71627;DHT22;59475;52.464;13.590;2024-01-11T06:11:50;-4.96;99.35
71627;DHT22;59475;52.464;13.590;2024-01-11T06:14:16;-4.96;99.44
71627;DHT22;59475;52.464;13.590;2024-01-11T06:16:41;-4.93;99.54
71627;DHT22;59475;52.464;13.590;2024-01-11T06:19:07;-4.89;99.49
71627;DHT22;59475;52.464;13.590;2024-01-11T06:21:33;-4.83;99.53
71627;DHT22;59475;52.464;13.590;2024-01-11T06:23:59;-4.80;99.65
71627;DHT22;59475;52.464;13.590;2024-01-11T06:26:24;-4.72;99.51
71627;DHT22;59475;52.464;13.590;2024-01-11T06:28:50;-4.71;99.62
71627;DHT22;59475;52.464;13.590;2024-01-11T06:31:15;-4.65;99.67
71627;DHT22;59475;52.464;13.590;2024-01-11T06:33:40;-4.61;99.67
71627;DHT22;59475;52.464;13.590;2024-01-11T06:36:06;-4.56;99.65
71627;DHT22;59475;52.464;13.590;2024-01-11T06:38:32;-4.52;99.59
71627;DHT22;59475;52.464;13.590;2024-01-11T06:40:57;-4.48;99.66
71627;DHT22;59475;52.464;13.590;2024-01-11T06:43:23;-4.42;99.70
71627;DHT22;59475;52.464;13.590;2024-01-11T06:45:48;-4.31;99.95
71627;DHT22;59475;52.464;13.590;2024-01-11T06:48:14;-4.24;99.99
71627;DHT22;59475;52.464;13.590;2024-01-11T06:50:39;-4.13;99.99
71627;DHT22;59475;52.464;13.590;2024-01-11T06:53:04;-4.01;99.99
71627;DHT22;59475;52.464;13.590;2024-01-11T06:55:30;-3.91;99.99
71627;DHT22;59475;52.464;13.590;2024-01-11T06:57:55;-3.87;99.99
71627;DHT22;59475;52.464;13.590;2024-01-11T07:00:20;-3.83;99.99
71627;DHT22;59475;52.464;13.590;2024-01-11T07:02:46;-3.80;99.99
71627;DHT22;59475;52.464;13.590;2024-01-11T07:05:12;-3.72;99.99
71627;DHT22;59475;52.464;13.590;2024-01-11T07:07:37;-3.73;99.99
71627;DHT22;59475;52.464;13.590;2024-01-11T07:10:03;-3.69;99.99
71627;DHT22;59475;52.464;13.590;2024-01-11T07:12:30;-3.63;99.99
71627;DHT22;59475;52.464;13.590;2024-01-11T07:14:56;-3.61;99.99
71627;DHT22;59475;52.464;13.590;2024-01-11T07:17:21;-3.55;99.99
71627;DHT22;59475;52.464;13.590;2024-01-11T07:19:48;-3.52;99.99
71627;DHT22;59475;52.464;13.590;2024-01-11T07:22:13;-3.51;99.99
71627;DHT22;59475;52.464;13.590;2024-01-11T07:24:38;-3.47;99.99
71627;DHT22;59475;52.464;13.590;2024-01-11T07:27:07;-3.42;99.99
71627;DHT22;59475;52.464;13.590;2024-01-11T07:29:33;-3.41;99.99
71627;DHT22;59475;52.464;13.590;2024-01-11T07:31:59;-3.38;99.99
71627;DHT22;59475;52.464;13.590;2024-01-11T07:34:25;-3.34;99.99
71627;DHT22;59475;52.464;13.590;2024-01-11T07:36:52;-3.28;99.99
71627;DHT22;59475;52.464;13.590;2024-01-11T07:39:17;-3.28;99.99
71627;DHT22;59475;52.464;13.590;2024-01-11T07:41:42;-3.27;99.99
71627;DHT22;59475;52.464;13.590;2024-01-11T07:44:08;-3.20;99.99
71627;DHT22;59475;52.464;13.590;2024-01-11T07:46:33;-3.17;99.99
71627;DHT22;59475;52.464;13.590;2024-01-11T07:48:59;-3.18;99.99
71627;DHT22;59475;52.464;13.590;2024-01-11T07:51:24;-3.14;99.99
71627;DHT22;59475;52.464;13.590;2024-01-11T07:53:50;-3.11;99.99
71627;DHT22;59475;52.464;13.590;2024-01-11T07:56:16;-3.08;99.99
71627;DHT22;59475;52.464;13.590;2024-01-11T07:58:42;-3.07;99.99
71627;DHT22;59475;52.464;13.590;2024-01-11T08:01:07;-3.04;99.99
71627;DHT22;59475;52.464;13.590;2024-01-11T08:03:33;-2.97;99.99
71627;DHT22;59475;52.464;13.590;2024-01-11T08:06:00;-2.92;99.99
71627;DHT22;59475;52.464;13.590;2024-01-11T08:08:25;-2.89;99.99
71627;DHT22;59475;52.464;13.590;2024-01-11T08:10:51;-2.87;99.99
71627;DHT22;59475;52.464;13.590;2024-01-11T08:13:17;-2.80;99.99
71627;DHT22;59475;52.464;13.590;2024-01-11T08:15:43;-2.75;99.99
71627;DHT22;59475;52.464;13.590;2024-01-11T08:18:08;-2.76;99.99
71627;DHT22;59475;52.464;13.590;2024-01-11T08:20:34;-2.68;99.99
71627;DHT22;59475;52.464;13.590;2024-01-11T08:22:59;-2.68;99.99
71627;DHT22;59475;52.464;13.590;2024-01-11T08:25:25;-2.69;99.99
71627;DHT22;59475;52.464;13.590;2024-01-11T08:27:50;-2.64;99.99
71627;DHT22;59475;52.464;13.590;2024-01-11T08:30:16;-2.59;99.99
71627;DHT22;59475;52.464;13.590;2024-01-11T08:32:41;-2.58;99.99
71627;DHT22;59475;52.464;13.590;2024-01-11T08:35:11;-2.58;99.99
71627;DHT22;59475;52.464;13.590;2024-01-11T08:37:37;-2.58;99.99
71627;DHT22;59475;52.464;13.590;2024-01-11T08:40:02;-2.52;99.99
71627;DHT22;59475;52.464;13.590;2024-01-11T08:42:30;-2.55;99.99
71627;DHT22;59475;52.464;13.590;2024-01-11T08:44:55;-2.52;99.99
71627;DHT22;59475;52.464;13.590;2024-01-11T08:47:21;-2.52;99.99
71627;DHT22;59475;52.464;13.590;2024-01-11T08:49:46;-2.48;99.99
71627;DHT22;59475;52.464;13.590;2024-01-11T08:52:12;-2.45;99.99
71627;DHT22;59475;52.464;13.590;2024-01-11T08:54:37;-2.48;99.99
71627;DHT22;59475;52.464;13.590;2024-01-11T08:57:03;-2.42;99.99
71627;DHT22;59475;52.464;13.590;2024-01-11T08:59:28;-2.48;99.99
71627;DHT22;59475;52.464;13.590;2024-01-11T09:01:54;-2.44;99.99
71627;DHT22;59475;52.464;13.590;2024-01-11T09:04:19;-2.47;99.99
71627;DHT22;59475;52.464;13.590;2024-01-11T09:06:45;-2.44;99.99
71627;DHT22;59475;52.464;13.590;2024-01-11T09:09:11;-2.37;99.99
71627;DHT22;59475;52.464;13.590;2024-01-11T09:11:39;-2.33;99.99
71627;DHT22;59475;52.464;13.590;2024-01-11T09:14:06;-2.28;99.99
71627;DHT22;59475;52.464;13.590;2024-01-11T09:16:31;-2.27;99.99
71627;DHT22;59475;52.464;13.590;2024-01-11T09:18:58;-2.21;99.99
71627;DHT22;59475;52.464;13.590;2024-01-11T09:21:25;-2.20;99.99
71627;DHT22;59475;52.464;13.590;2024-01-11T09:23:50;-2.17;99.99
71627;DHT22;59475;52.464;13.590;2024-01-11T09:26:16;-2.15;99.99
71627;DHT22;59475;52.464;13.590;2024-01-11T09:28:41;-2.15;99.99
71627;DHT22;59475;52.464;13.590;2024-01-11T09:31:06;-2.11;99.99
71627;DHT22;59475;52.464;13.590;2024-01-11T09:33:32;-2.09;99.99
71627;DHT22;59475;52.464;13.590;2024-01-11T09:35:57;-2.01;99.95
71627;DHT22;59475;52.464;13.590;2024-01-11T09:38:22;-2.06;99.85
71627;DHT22;59475;52.464;13.590;2024-01-11T09:41:00;-2.09;99.90
71627;DHT22;59475;52.464;13.590;2024-01-11T09:43:29;-2.17;99.99
71627;DHT22;59475;52.464;13.590;2024-01-11T09:45:55;-2.09;99.99
71627;DHT22;59475;52.464;13.590;2024-01-11T09:48:23;-2.14;99.99
71627;DHT22;59475;52.464;13.590;2024-01-11T09:50:50;-2.11;99.99
71627;DHT22;59475;52.464;13.590;2024-01-11T09:53:18;-2.09;99.99
71627;DHT22;59475;52.464;13.590;2024-01-11T09:55:46;-2.07;99.99
71627;DHT22;59475;52.464;13.590;2024-01-11T09:58:13;-2.03;99.99
71627;DHT22;59475;52.464;13.590;2024-01-11T10:00:39;-2.03;99.86
71627;DHT22;59475;52.464;13.590;2024-01-11T10:03:06;-2.04;99.83
71627;DHT22;59475;52.464;13.590;2024-01-11T10:05:33;-1.99;99.80
71627;DHT22;59475;52.464;13.590;2024-01-11T10:07:59;-1.96;99.90
71627;DHT22;59475;52.464;13.590;2024-01-11T10:10:25;-1.93;99.88
71627;DHT22;59475;52.464;13.590;2024-01-11T10:12:51;-1.92;99.80
71627;DHT22;59475;52.464;13.590;2024-01-11T10:15:16;-1.87;99.79
71627;DHT22;59475;52.464;13.590;2024-01-11T10:17:42;-1.93;99.78
71627;DHT22;59475;52.464;13.590;2024-01-11T10:20:13;-1.90;99.66
71627;DHT22;59475;52.464;13.590;2024-01-11T10:22:42;-1.89;99.71
71627;DHT22;59475;52.464;13.590;2024-01-11T10:25:12;-1.92;99.76
71627;DHT22;59475;52.464;13.590;2024-01-11T10:27:40;-1.92;99.83
71627;DHT22;59475;52.464;13.590;2024-01-11T10:30:07;-1.87;99.90
71627;DHT22;59475;52.464;13.590;2024-01-11T10:32:33;-1.80;99.86
71627;DHT22;59475;52.464;13.590;2024-01-11T10:35:00;-1.80;99.68
71627;DHT22;59475;52.464;13.590;2024-01-11T10:37:27;-1.85;99.73
71627;DHT22;59475;52.464;13.590;2024-01-11T10:39:55;-1.80;99.63
71627;DHT22;59475;52.464;13.590;2024-01-11T10:42:24;-1.85;99.61
71627;DHT22;59475;52.464;13.590;2024-01-11T10:44:54;-1.90;99.72
71627;DHT22;59475;52.464;13.590;2024-01-11T10:47:21;-1.93;99.82
71627;DHT22;59475;52.464;13.590;2024-01-11T10:49:50;-1.83;99.82
71627;DHT22;59475;52.464;13.590;2024-01-11T10:52:22;-1.83;99.82
71627;DHT22;59475;52.464;13.590;2024-01-11T10:54:48;-1.79;99.85
71627;DHT22;59475;52.464;13.590;2024-01-11T10:57:15;-1.78;99.68
71627;DHT22;59475;52.464;13.590;2024-01-11T10:59:41;-1.72;99.70
71627;DHT22;59475;52.464;13.590;2024-01-11T11:02:09;-1.75;99.77
71627;DHT22;59475;52.464;13.590;2024-01-11T11:04:38;-1.71;99.80
71627;DHT22;59475;52.464;13.590;2024-01-11T11:07:05;-1.65;99.70
71627;DHT22;59475;52.464;13.590;2024-01-11T11:09:34;-1.61;99.76
71627;DHT22;59475;52.464;13.590;2024-01-11T11:12:01;-1.68;99.73
71627;DHT22;59475;52.464;13.590;2024-01-11T11:14:27;-1.66;99.64
71627;DHT22;59475;52.464;13.590;2024-01-11T11:16:53;-1.66;99.61
71627;DHT22;59475;52.464;13.590;2024-01-11T11:19:20;-1.65;99.65
71627;DHT22;59475;52.464;13.590;2024-01-11T11:21:47;-1.71;99.61
71627;DHT22;59475;52.464;13.590;2024-01-11T11:24:13;-1.71;99.54
71627;DHT22;59475;52.464;13.590;2024-01-11T11:26:38;-1.75;99.63
71627;DHT22;59475;52.464;13.590;2024-01-11T11:29:04;-1.72;99.59
71627;DHT22;59475;52.464;13.590;2024-01-11T11:31:52;-1.72;99.63
71627;DHT22;59475;52.464;13.590;2024-01-11T11:34:41;-1.76;99.48
71627;DHT22;59475;52.464;13.590;2024-01-11T11:37:08;-1.75;99.58
71627;DHT22;59475;52.464;13.590;2024-01-11T11:39:34;-1.73;99.54
71627;DHT22;59475;52.464;13.590;2024-01-11T11:41:59;-1.72;99.59
71627;DHT22;59475;52.464;13.590;2024-01-11T11:44:26;-1.68;99.60
71627;DHT22;59475;52.464;13.590;2024-01-11T11:46:51;-1.68;99.73
71627;DHT22;59475;52.464;13.590;2024-01-11T11:49:17;-1.69;99.87
71627;DHT22;59475;52.464;13.590;2024-01-11T11:51:43;-1.65;99.76
71627;DHT22;59475;52.464;13.590;2024-01-11T11:54:09;-1.63;99.66
71627;DHT22;59475;52.464;13.590;2024-01-11T11:56:40;-1.62;99.62
71627;DHT22;59475;52.464;13.590;2024-01-11T11:59:06;-1.62;99.54
71627;DHT22;59475;52.464;13.590;2024-01-11T12:01:32;-1.58;99.49
71627;DHT22;59475;52.464;13.590;2024-01-11T12:03:58;-1.56;99.45
71627;DHT22;59475;52.464;13.590;2024-01-11T12:06:24;-1.51;99.47
71627;DHT22;59475;52.464;13.590;2024-01-11T12:08:52;-1.47;99.33
71627;DHT22;59475;52.464;13.590;2024-01-11T12:11:19;-1.47;99.25
71627;DHT22;59475;52.464;13.590;2024-01-11T12:13:45;-1.47;99.25
71627;DHT22;59475;52.464;13.590;2024-01-11T12:16:11;-1.45;99.20
71627;DHT22;59475;52.464;13.590;2024-01-11T12:18:37;-1.48;99.20
71627;DHT22;59475;52.464;13.590;2024-01-11T12:21:02;-1.43;99.20
71627;DHT22;59475;52.464;13.590;2024-01-11T12:23:28;-1.47;99.32
71627;DHT22;59475;52.464;13.590;2024-01-11T12:25:58;-1.41;99.37
71627;DHT22;59475;52.464;13.590;2024-01-11T12:28:24;-1.40;99.41
71627;DHT22;59475;52.464;13.590;2024-01-11T12:30:49;-1.38;99.43
71627;DHT22;59475;52.464;13.590;2024-01-11T12:33:15;-1.40;99.63
71627;DHT22;59475;52.464;13.590;2024-01-11T12:35:41;-1.37;99.78
71627;DHT22;59475;52.464;13.590;2024-01-11T12:38:06;-1.34;99.83
71627;DHT22;59475;52.464;13.590;2024-01-11T12:40:33;-1.33;99.92
71627;DHT22;59475;52.464;13.590;2024-01-11T12:43:00;-1.28;99.99
71627;DHT22;59475;52.464;13.590;2024-01-11T12:45:25;-1.23;99.99
71627;DHT22;59475;52.464;13.590;2024-01-11T12:47:55;-1.18;99.99
71627;DHT22;59475;52.464;13.590;2024-01-11T12:50:23;-1.14;99.99
71627;DHT22;59475;52.464;13.590;2024-01-11T12:53:11;-1.04;99.99
71627;DHT22;59475;52.464;13.590;2024-01-11T12:55:48;-1.03;99.99
71627;DHT22;59475;52.464;13.590;2024-01-11T12:58:19;-0.97;99.99
71627;DHT22;59475;52.464;13.590;2024-01-11T13:00:45;-0.93;99.99
71627;DHT22;59475;52.464;13.590;2024-01-11T13:03:11;-0.92;99.99
71627;DHT22;59475;52.464;13.590;2024-01-11T13:05:36;-0.92;99.99
71627;DHT22;59475;52.464;13.590;2024-01-11T13:08:07;-0.89;99.99
71627;DHT22;59475;52.464;13.590;2024-01-11T13:10:32;-0.86;99.99
71627;DHT22;59475;52.464;13.590;2024-01-11T13:12:58;-0.82;99.99
71627;DHT22;59475;52.464;13.590;2024-01-11T13:15:23;-0.82;99.99
71627;DHT22;59475;52.464;13.590;2024-01-11T13:17:49;-0.76;99.99
71627;DHT22;59475;52.464;13.590;2024-01-11T13:20:15;-0.75;99.99
71627;DHT22;59475;52.464;13.590;2024-01-11T13:22:40;-0.72;99.99
71627;DHT22;59475;52.464;13.590;2024-01-11T13:25:06;-0.70;99.99
71627;DHT22;59475;52.464;13.590;2024-01-11T13:27:31;-0.68;99.99
71627;DHT22;59475;52.464;13.590;2024-01-11T13:29:57;-0.65;99.99
71627;DHT22;59475;52.464;13.590;2024-01-11T13:32:23;-0.61;99.99
71627;DHT22;59475;52.464;13.590;2024-01-11T13:34:48;-0.57;99.99
71627;DHT22;59475;52.464;13.590;2024-01-11T13:37:14;-0.54;99.99
71627;DHT22;59475;52.464;13.590;2024-01-11T13:39:39;-0.49;99.99
71627;DHT22;59475;52.464;13.590;2024-01-11T13:42:05;-0.49;99.99
71627;DHT22;59475;52.464;13.590;2024-01-11T13:44:34;-0.47;99.99
71627;DHT22;59475;52.464;13.590;2024-01-11T13:46:59;-0.47;99.86
71627;DHT22;59475;52.464;13.590;2024-01-11T13:49:25;-0.48;99.81
71627;DHT22;59475;52.464;13.590;2024-01-11T13:51:50;-0.52;99.80
71627;DHT22;59475;52.464;13.590;2024-01-11T13:54:16;-0.54;99.89
71627;DHT22;59475;52.464;13.590;2024-01-11T13:56:42;-0.54;99.60
71627;DHT22;59475;52.464;13.590;2024-01-11T13:59:07;-0.54;99.58
71627;DHT22;59475;52.464;13.590;2024-01-11T14:01:32;-0.52;99.60
71627;DHT22;59475;52.464;13.590;2024-01-11T14:03:58;-0.57;99.64
71627;DHT22;59475;52.464;13.590;2024-01-11T14:06:23;-0.57;99.66
71627;DHT22;59475;52.464;13.590;2024-01-11T14:08:48;-0.59;99.73
71627;DHT22;59475;52.464;13.590;2024-01-11T14:11:14;-0.58;99.80
71627;DHT22;59475;52.464;13.590;2024-01-11T14:13:39;-0.58;99.79
71627;DHT22;59475;52.464;13.590;2024-01-11T14:16:05;-0.62;99.93
71627;DHT22;59475;52.464;13.590;2024-01-11T14:18:31;-0.62;99.99
71627;DHT22;59475;52.464;13.590;2024-01-11T14:20:56;-0.64;99.99
71627;DHT22;59475;52.464;13.590;2024-01-11T14:23:21;-0.61;99.99
71627;DHT22;59475;52.464;13.590;2024-01-11T14:25:47;-0.62;99.99
71627;DHT22;59475;52.464;13.590;2024-01-11T14:28:13;-0.66;99.99
71627;DHT22;59475;52.464;13.590;2024-01-11T14:30:38;-0.65;99.99
71627;DHT22;59475;52.464;13.590;2024-01-11T14:33:04;-0.66;99.99
71627;DHT22;59475;52.464;13.590;2024-01-11T14:35:29;-0.68;99.99
71627;DHT22;59475;52.464;13.590;2024-01-11T14:37:56;-0.64;99.99
71627;DHT22;59475;52.464;13.590;2024-01-11T14:40:21;-0.64;99.99
71627;DHT22;59475;52.464;13.590;2024-01-11T14:42:48;-0.59;99.99
71627;DHT22;59475;52.464;13.590;2024-01-11T14:45:13;-0.64;99.99
71627;DHT22;59475;52.464;13.590;2024-01-11T14:47:39;-0.65;99.99
71627;DHT22;59475;52.464;13.590;2024-01-11T14:50:04;-0.61;99.99
71627;DHT22;59475;52.464;13.590;2024-01-11T14:52:31;-0.59;99.99
71627;DHT22;59475;52.464;13.590;2024-01-11T14:54:56;-0.57;99.99
71627;DHT22;59475;52.464;13.590;2024-01-11T14:57:22;-0.59;99.99
71627;DHT22;59475;52.464;13.590;2024-01-11T14:59:47;-0.59;99.99
71627;DHT22;59475;52.464;13.590;2024-01-11T15:02:12;-0.59;99.99
71627;DHT22;59475;52.464;13.590;2024-01-11T15:04:38;-0.57;99.99
71627;DHT22;59475;52.464;13.590;2024-01-11T15:07:04;-0.59;99.99
71627;DHT22;59475;52.464;13.590;2024-01-11T15:09:29;-0.58;99.99